sensor_id;sensor_type;location;lat;lon;timestamp;pressure;altitude;pressure_sealevel;temperature;humidity
75298;BME280;63896;45.990;18.688;2023-12-29T00:01:32;101314.13;;;2.37;100.00
75298;BME280;63896;45.990;18.688;2023-12-29T00:04:35;101314.28;;;2.35;100.00
75298;BME280;63896;45.990;18.688;2023-12-29T00:07:37;101308.06;;;2.27;100.00
75298;BME280;63896;45.990;18.688;2023-12-29T00:10:40;101297.59;;;2.27;100.00
75298;BME280;63896;45.990;18.688;2023-12-29T00:13:43;101295.25;;;2.24;100.00
75298;BME280;63896;45.990;18.688;2023-12-29T00:16:46;101300.88;;;2.29;100.00
75298;BME280;63896;45.990;18.688;2023-12-29T00:19:49;101288.88;;;2.36;100.00
75298;BME280;63896;45.990;18.688;2023-12-29T00:22:51;101288.22;;;2.34;100.00
75298;BME280;63896;45.990;18.688;2023-12-29T00:25:54;101298.41;;;2.47;100.00
75298;BME280;63896;45.990;18.688;2023-12-29T00:28:57;101293.59;;;2.42;100.00
75298;BME280;63896;45.990;18.688;2023-12-29T00:32:00;101294.66;;;2.39;100.00
75298;BME280;63896;45.990;18.688;2023-12-29T00:35:03;101294.81;;;2.48;100.00
75298;BME280;63896;45.990;18.688;2023-12-29T00:38:09;101301.28;;;2.53;100.00
75298;BME280;63896;45.990;18.688;2023-12-29T00:41:11;101289.84;;;2.54;100.00
75298;BME280;63896;45.990;18.688;2023-12-29T00:44:14;101294.94;;;2.56;100.00
75298;BME280;63896;45.990;18.688;2023-12-29T00:47:17;101291.50;;;2.55;100.00
75298;BME280;63896;45.990;18.688;2023-12-29T00:50:22;101292.19;;;2.57;100.00
75298;BME280;63896;45.990;18.688;2023-12-29T00:53:24;101290.69;;;2.55;100.00
75298;BME280;63896;45.990;18.688;2023-12-29T00:56:27;101283.09;;;2.61;100.00
75298;BME280;63896;45.990;18.688;2023-12-29T00:59:30;101278.97;;;2.59;100.00
75298;BME280;63896;45.990;18.688;2023-12-29T01:02:33;101277.16;;;2.59;100.00
75298;BME280;63896;45.990;18.688;2023-12-29T01:05:35;101282.25;;;2.61;100.00
75298;BME280;63896;45.990;18.688;2023-12-29T01:08:38;101284.59;;;2.64;100.00
75298;BME280;63896;45.990;18.688;2023-12-29T01:11:41;101285.00;;;2.69;100.00
75298;BME280;63896;45.990;18.688;2023-12-29T01:14:43;101280.72;;;2.68;100.00
75298;BME280;63896;45.990;18.688;2023-12-29T01:17:46;101277.44;;;2.66;100.00
75298;BME280;63896;45.990;18.688;2023-12-29T01:20:49;101277.28;;;2.67;100.00
75298;BME280;63896;45.990;18.688;2023-12-29T01:23:52;101280.31;;;2.63;100.00
75298;BME280;63896;45.990;18.688;2023-12-29T01:26:55;101280.22;;;2.55;100.00
75298;BME280;63896;45.990;18.688;2023-12-29T01:29:58;101282.81;;;2.45;100.00
75298;BME280;63896;45.990;18.688;2023-12-29T01:33:02;101286.97;;;2.38;100.00
75298;BME280;63896;45.990;18.688;2023-12-29T01:36:05;101279.28;;;2.27;100.00
75298;BME280;63896;45.990;18.688;2023-12-29T01:39:22;101275.28;;;2.23;100.00
75298;BME280;63896;45.990;18.688;2023-12-29T01:42:24;101280.91;;;2.18;100.00
75298;BME280;63896;45.990;18.688;2023-12-29T01:45:27;101271.00;;;2.22;100.00
75298;BME280;63896;45.990;18.688;2023-12-29T01:48:30;101272.66;;;2.23;100.00
75298;BME280;63896;45.990;18.688;2023-12-29T01:51:33;101276.47;;;2.48;100.00
75298;BME280;63896;45.990;18.688;2023-12-29T01:54:36;101269.44;;;2.58;100.00
75298;BME280;63896;45.990;18.688;2023-12-29T01:57:43;101261.16;;;2.62;100.00
75298;BME280;63896;45.990;18.688;2023-12-29T02:00:46;101261.44;;;2.59;100.00
75298;BME280;63896;45.990;18.688;2023-12-29T02:03:49;101257.72;;;2.62;100.00
75298;BME280;63896;45.990;18.688;2023-12-29T02:06:54;101261.16;;;2.62;100.00
75298;BME280;63896;45.990;18.688;2023-12-29T02:10:00;101251.13;;;2.58;100.00
75298;BME280;63896;45.990;18.688;2023-12-29T02:13:03;101249.31;;;2.49;100.00
75298;BME280;63896;45.990;18.688;2023-12-29T02:16:30;101245.50;;;2.43;100.00
75298;BME280;63896;45.990;18.688;2023-12-29T02:19:46;101245.22;;;2.36;100.00
75298;BME280;63896;45.990;18.688;2023-12-29T02:22:52;101241.63;;;2.28;100.00
75298;BME280;63896;45.990;18.688;2023-12-29T02:26:02;101234.22;;;2.23;100.00
75298;BME280;63896;45.990;18.688;2023-12-29T02:29:08;101229.25;;;2.20;100.00
75298;BME280;63896;45.990;18.688;2023-12-29T02:32:13;101232.41;;;2.14;100.00
75298;BME280;63896;45.990;18.688;2023-12-29T02:35:23;101234.63;;;2.09;100.00
75298;BME280;63896;45.990;18.688;2023-12-29T02:38:28;101227.47;;;2.02;100.00
75298;BME280;63896;45.990;18.688;2023-12-29T02:41:31;101236.00;;;1.94;100.00
75298;BME280;63896;45.990;18.688;2023-12-29T02:44:35;101230.50;;;1.87;100.00
75298;BME280;63896;45.990;18.688;2023-12-29T02:47:38;101240.00;;;1.79;100.00
75298;BME280;63896;45.990;18.688;2023-12-29T02:50:41;101240.28;;;1.76;100.00
75298;BME280;63896;45.990;18.688;2023-12-29T02:53:44;101234.75;;;1.79;100.00
75298;BME280;63896;45.990;18.688;2023-12-29T02:56:47;101241.09;;;1.86;100.00
75298;BME280;63896;45.990;18.688;2023-12-29T02:59:50;101240.97;;;1.87;100.00
75298;BME280;63896;45.990;18.688;2023-12-29T03:02:52;101242.75;;;1.87;100.00
75298;BME280;63896;45.990;18.688;2023-12-29T03:05:55;101243.88;;;1.84;100.00
75298;BME280;63896;45.990;18.688;2023-12-29T03:08:58;101237.13;;;1.91;100.00
75298;BME280;63896;45.990;18.688;2023-12-29T03:12:01;101237.94;;;1.92;100.00
75298;BME280;63896;45.990;18.688;2023-12-29T03:15:04;101235.75;;;1.87;100.00
75298;BME280;63896;45.990;18.688;2023-12-29T03:18:06;101232.41;;;1.85;100.00
75298;BME280;63896;45.990;18.688;2023-12-29T03:21:09;101228.16;;;1.84;100.00
75298;BME280;63896;45.990;18.688;2023-12-29T03:24:12;101224.84;;;1.82;100.00
75298;BME280;63896;45.990;18.688;2023-12-29T03:27:15;101212.47;;;1.84;100.00
75298;BME280;63896;45.990;18.688;2023-12-29T03:30:18;101211.06;;;1.90;100.00
75298;BME280;63896;45.990;18.688;2023-12-29T03:33:20;101211.63;;;1.93;100.00
75298;BME280;63896;45.990;18.688;2023-12-29T03:36:23;101214.41;;;1.92;100.00
75298;BME280;63896;45.990;18.688;2023-12-29T03:39:26;101210.94;;;1.91;100.00
75298;BME280;63896;45.990;18.688;2023-12-29T03:42:29;101215.63;;;1.98;100.00
75298;BME280;63896;45.990;18.688;2023-12-29T03:45:31;101209.81;;;2.13;100.00
75298;BME280;63896;45.990;18.688;2023-12-29T03:48:34;101209.81;;;2.13;100.00
75298;BME280;63896;45.990;18.688;2023-12-29T03:51:37;101210.25;;;2.09;100.00
75298;BME280;63896;45.990;18.688;2023-12-29T03:54:40;101208.88;;;2.05;100.00
75298;BME280;63896;45.990;18.688;2023-12-29T03:57:43;101213.97;;;2.06;100.00
75298;BME280;63896;45.990;18.688;2023-12-29T04:00:45;101214.53;;;2.00;100.00
75298;BME280;63896;45.990;18.688;2023-12-29T04:03:49;101215.63;;;1.98;100.00
75298;BME280;63896;45.990;18.688;2023-12-29T04:06:51;101207.34;;;2.02;100.00
75298;BME280;63896;45.990;18.688;2023-12-29T04:09:54;101211.38;;;1.97;100.00
75298;BME280;63896;45.990;18.688;2023-12-29T04:12:57;101210.25;;;1.89;100.00
75298;BME280;63896;45.990;18.688;2023-12-29T04:16:00;101212.16;;;1.78;100.00
75298;BME280;63896;45.990;18.688;2023-12-29T04:19:03;101214.09;;;1.66;100.00
75298;BME280;63896;45.990;18.688;2023-12-29T04:22:05;101213.16;;;1.58;100.00
75298;BME280;63896;45.990;18.688;2023-12-29T04:25:08;101217.28;;;1.51;100.00
75298;BME280;63896;45.990;18.688;2023-12-29T04:28:11;101216.28;;;1.42;100.00
75298;BME280;63896;45.990;18.688;2023-12-29T04:31:14;101222.03;;;1.36;100.00
75298;BME280;63896;45.990;18.688;2023-12-29T04:34:17;101224.38;;;1.29;100.00
75298;BME280;63896;45.990;18.688;2023-12-29T04:37:20;101221.88;;;1.28;100.00
75298;BME280;63896;45.990;18.688;2023-12-29T04:40:23;101225.59;;;1.25;100.00
75298;BME280;63896;45.990;18.688;2023-12-29T04:43:26;101216.34;;;1.21;100.00
75298;BME280;63896;45.990;18.688;2023-12-29T04:46:28;101216.63;;;1.18;100.00
75298;BME280;63896;45.990;18.688;2023-12-29T04:49:31;101213.75;;;1.21;100.00
75298;BME280;63896;45.990;18.688;2023-12-29T04:52:34;101206.47;;;1.25;100.00
75298;BME280;63896;45.990;18.688;2023-12-29T04:55:37;101206.34;;;1.26;100.00
75298;BME280;63896;45.990;18.688;2023-12-29T04:58:39;101210.63;;;1.27;100.00
75298;BME280;63896;45.990;18.688;2023-12-29T05:01:42;101204.94;;;1.22;100.00
75298;BME280;63896;45.990;18.688;2023-12-29T05:04:45;101217.16;;;1.12;100.00
75298;BME280;63896;45.990;18.688;2023-12-29T05:07:49;101221.81;;;1.09;100.00
75298;BME280;63896;45.990;18.688;2023-12-29T05:10:51;101215.75;;;1.08;100.00
75298;BME280;63896;45.990;18.688;2023-12-29T05:13:54;101216.34;;;1.12;100.00
75298;BME280;63896;45.990;18.688;2023-12-29T05:16:57;101215.38;;;1.13;100.00
75298;BME280;63896;45.990;18.688;2023-12-29T05:20:00;101218.97;;;1.12;100.00
75298;BME280;63896;45.990;18.688;2023-12-29T05:23:02;101220.19;;;1.17;100.00
75298;BME280;63896;45.990;18.688;2023-12-29T05:26:05;101220.34;;;1.25;100.00
75298;BME280;63896;45.990;18.688;2023-12-29T05:29:08;101222.16;;;1.25;100.00
75298;BME280;63896;45.990;18.688;2023-12-29T05:32:10;101215.38;;;1.13;100.00
75298;BME280;63896;45.990;18.688;2023-12-29T05:35:13;101219.75;;;1.12;100.00
75298;BME280;63896;45.990;18.688;2023-12-29T05:38:16;101222.28;;;1.23;100.00
75298;BME280;63896;45.990;18.688;2023-12-29T05:41:19;101216.25;;;1.32;100.00
75298;BME280;63896;45.990;18.688;2023-12-29T05:44:22;101222.63;;;1.49;100.00
75298;BME280;63896;45.990;18.688;2023-12-29T05:47:25;101219.06;;;1.60;100.00
75298;BME280;63896;45.990;18.688;2023-12-29T05:50:28;101219.56;;;1.44;100.00
75298;BME280;63896;45.990;18.688;2023-12-29T05:53:31;101212.41;;;1.36;100.00
75298;BME280;63896;45.990;18.688;2023-12-29T05:56:33;101215.41;;;1.32;100.00
75298;BME280;63896;45.990;18.688;2023-12-29T05:59:36;101208.25;;;1.24;100.00
75298;BME280;63896;45.990;18.688;2023-12-29T06:02:39;101201.63;;;1.20;100.00
75298;BME280;63896;45.990;18.688;2023-12-29T06:05:42;101215.13;;;1.16;100.00
75298;BME280;63896;45.990;18.688;2023-12-29T06:08:48;101217.84;;;1.14;100.00
75298;BME280;63896;45.990;18.688;2023-12-29T06:11:51;101217.13;;;1.42;100.00
75298;BME280;63896;45.990;18.688;2023-12-29T06:14:54;101224.78;;;1.34;100.00
75298;BME280;63896;45.990;18.688;2023-12-29T06:17:57;101221.38;;;1.53;100.00
75298;BME280;63896;45.990;18.688;2023-12-29T06:21:02;101218.22;;;1.50;100.00
75298;BME280;63896;45.990;18.688;2023-12-29T06:24:05;101215.28;;;1.43;100.00
75298;BME280;63896;45.990;18.688;2023-12-29T06:27:08;101220.97;;;1.48;100.00
75298;BME280;63896;45.990;18.688;2023-12-29T06:30:12;101222.91;;;1.56;100.00
75298;BME280;63896;45.990;18.688;2023-12-29T06:33:14;101219.72;;;1.52;100.00
75298;BME280;63896;45.990;18.688;2023-12-29T06:36:17;101208.44;;;1.52;100.00
75298;BME280;63896;45.990;18.688;2023-12-29T06:39:20;101215.72;;;1.48;100.00
75298;BME280;63896;45.990;18.688;2023-12-29T06:42:23;101205.97;;;1.50;100.00
75298;BME280;63896;45.990;18.688;2023-12-29T06:45:26;101211.88;;;1.52;100.00
75298;BME280;63896;45.990;18.688;2023-12-29T06:48:28;101225.09;;;1.51;100.00
75298;BME280;63896;45.990;18.688;2023-12-29T06:51:31;101217.94;;;1.53;100.00
75298;BME280;63896;45.990;18.688;2023-12-29T06:54:34;101218.50;;;1.56;100.00
75298;BME280;63896;45.990;18.688;2023-12-29T06:57:38;101224.44;;;1.58;100.00
75298;BME280;63896;45.990;18.688;2023-12-29T07:00:41;101225.94;;;1.70;100.00
75298;BME280;63896;45.990;18.688;2023-12-29T07:03:46;101218.63;;;1.74;100.00
75298;BME280;63896;45.990;18.688;2023-12-29T07:06:51;101225.13;;;1.70;100.00
75298;BME280;63896;45.990;18.688;2023-12-29T07:09:53;101220.56;;;1.72;100.00
75298;BME280;63896;45.990;18.688;2023-12-29T07:12:56;101223.19;;;1.72;100.00
75298;BME280;63896;45.990;18.688;2023-12-29T07:15:59;101232.03;;;1.80;100.00
75298;BME280;63896;45.990;18.688;2023-12-29T07:19:02;101244.13;;;1.91;100.00
75298;BME280;63896;45.990;18.688;2023-12-29T07:22:05;101242.63;;;2.08;100.00
75298;BME280;63896;45.990;18.688;2023-12-29T07:25:09;101236.13;;;2.31;100.00
75298;BME280;63896;45.990;18.688;2023-12-29T07:28:14;101236.06;;;2.60;100.00
75298;BME280;63896;45.990;18.688;2023-12-29T07:31:17;101240.09;;;2.91;100.00
75298;BME280;63896;45.990;18.688;2023-12-29T07:34:20;101230.03;;;3.23;100.00
75298;BME280;63896;45.990;18.688;2023-12-29T07:37:23;101223.59;;;3.63;100.00
75298;BME280;63896;45.990;18.688;2023-12-29T07:40:26;101215.56;;;4.00;100.00
75298;BME280;63896;45.990;18.688;2023-12-29T07:43:29;101219.75;;;4.28;100.00
75298;BME280;63896;45.990;18.688;2023-12-29T07:46:32;101227.31;;;4.57;100.00
75298;BME280;63896;45.990;18.688;2023-12-29T07:49:35;101228.13;;;5.75;100.00
75298;BME280;63896;45.990;18.688;2023-12-29T07:52:38;101232.16;;;8.59;100.00
75298;BME280;63896;45.990;18.688;2023-12-29T07:55:42;101220.75;;;10.60;100.00
75298;BME280;63896;45.990;18.688;2023-12-29T07:58:46;101223.53;;;11.74;100.00
75298;BME280;63896;45.990;18.688;2023-12-29T08:01:51;101226.38;;;13.04;100.00
75298;BME280;63896;45.990;18.688;2023-12-29T08:04:54;101232.81;;;13.41;100.00
75298;BME280;63896;45.990;18.688;2023-12-29T08:07:58;101241.22;;;14.14;94.60
75298;BME280;63896;45.990;18.688;2023-12-29T08:11:02;101232.34;;;14.51;75.03
75298;BME280;63896;45.990;18.688;2023-12-29T08:14:05;101236.31;;;15.21;63.70
75298;BME280;63896;45.990;18.688;2023-12-29T08:17:09;101238.16;;;16.17;56.80
75298;BME280;63896;45.990;18.688;2023-12-29T08:20:12;101238.88;;;16.36;55.37
75298;BME280;63896;45.990;18.688;2023-12-29T08:23:15;101240.28;;;16.96;53.01
75298;BME280;63896;45.990;18.688;2023-12-29T08:26:17;101247.19;;;16.69;52.30
75298;BME280;63896;45.990;18.688;2023-12-29T08:29:20;101251.97;;;17.82;49.46
75298;BME280;63896;45.990;18.688;2023-12-29T08:32:23;101256.34;;;18.16;47.71
75298;BME280;63896;45.990;18.688;2023-12-29T08:35:25;101260.34;;;18.30;47.41
75298;BME280;63896;45.990;18.688;2023-12-29T08:38:28;101253.28;;;17.79;48.31
75298;BME280;63896;45.990;18.688;2023-12-29T08:41:31;101249.13;;;19.05;45.32
75298;BME280;63896;45.990;18.688;2023-12-29T08:44:34;101253.22;;;19.08;43.85
75298;BME280;63896;45.990;18.688;2023-12-29T08:47:36;101252.53;;;19.61;42.57
75298;BME280;63896;45.990;18.688;2023-12-29T08:50:39;101251.28;;;19.68;42.14
75298;BME280;63896;45.990;18.688;2023-12-29T08:53:42;101257.97;;;20.19;41.34
75298;BME280;63896;45.990;18.688;2023-12-29T08:56:45;101261.94;;;20.38;40.53
75298;BME280;63896;45.990;18.688;2023-12-29T08:59:47;101264.25;;;21.04;39.39
75298;BME280;63896;45.990;18.688;2023-12-29T09:02:50;101254.50;;;19.97;41.72
75298;BME280;63896;45.990;18.688;2023-12-29T09:05:53;101253.91;;;19.41;42.45
75298;BME280;63896;45.990;18.688;2023-12-29T09:08:56;101253.00;;;19.14;43.53
75298;BME280;63896;45.990;18.688;2023-12-29T09:11:59;101257.06;;;20.72;40.16
75298;BME280;63896;45.990;18.688;2023-12-29T09:15:02;101255.56;;;21.49;38.91
75298;BME280;63896;45.990;18.688;2023-12-29T09:18:05;101251.75;;;21.45;39.23
75298;BME280;63896;45.990;18.688;2023-12-29T09:21:09;101245.88;;;21.58;38.94
75298;BME280;63896;45.990;18.688;2023-12-29T09:24:12;101241.38;;;21.99;38.18
75298;BME280;63896;45.990;18.688;2023-12-29T09:27:15;101251.81;;;21.55;39.25
75298;BME280;63896;45.990;18.688;2023-12-29T09:30:18;101248.34;;;23.70;36.46
75298;BME280;63896;45.990;18.688;2023-12-29T09:33:21;101246.47;;;22.96;36.94
75298;BME280;63896;45.990;18.688;2023-12-29T09:36:25;101242.81;;;24.24;35.48
75298;BME280;63896;45.990;18.688;2023-12-29T09:39:28;101239.44;;;24.37;34.30
75298;BME280;63896;45.990;18.688;2023-12-29T09:42:31;101235.72;;;22.51;37.06
75298;BME280;63896;45.990;18.688;2023-12-29T09:45:37;101230.56;;;23.49;35.99
75298;BME280;63896;45.990;18.688;2023-12-29T09:48:44;101228.78;;;23.73;35.16
75298;BME280;63896;45.990;18.688;2023-12-29T09:51:48;101218.75;;;24.46;34.45
75298;BME280;63896;45.990;18.688;2023-12-29T09:54:52;101223.03;;;24.76;33.88
75298;BME280;63896;45.990;18.688;2023-12-29T09:57:58;101218.06;;;24.88;33.26
75298;BME280;63896;45.990;18.688;2023-12-29T10:01:03;101215.22;;;24.75;33.85
75298;BME280;63896;45.990;18.688;2023-12-29T10:04:07;101211.13;;;23.81;35.51
75298;BME280;63896;45.990;18.688;2023-12-29T10:07:18;101207.22;;;24.59;34.52
75298;BME280;63896;45.990;18.688;2023-12-29T10:10:23;101204.03;;;24.76;34.27
75298;BME280;63896;45.990;18.688;2023-12-29T10:13:29;101205.59;;;24.58;34.07
75298;BME280;63896;45.990;18.688;2023-12-29T10:16:43;101198.16;;;25.17;33.33
75298;BME280;63896;45.990;18.688;2023-12-29T10:20:06;101197.75;;;24.81;33.68
75298;BME280;63896;45.990;18.688;2023-12-29T10:23:18;101189.47;;;25.76;32.24
75298;BME280;63896;45.990;18.688;2023-12-29T10:26:22;101188.13;;;25.17;32.63
75298;BME280;63896;45.990;18.688;2023-12-29T10:29:27;101185.13;;;26.26;31.82
75298;BME280;63896;45.990;18.688;2023-12-29T10:32:30;101181.34;;;24.14;35.21
75298;BME280;63896;45.990;18.688;2023-12-29T10:35:35;101179.00;;;26.15;31.69
75298;BME280;63896;45.990;18.688;2023-12-29T10:38:40;101173.22;;;26.03;32.11
75298;BME280;63896;45.990;18.688;2023-12-29T10:41:45;101170.47;;;26.68;31.26
75298;BME280;63896;45.990;18.688;2023-12-29T10:45:04;101164.09;;;26.59;31.83
75298;BME280;63896;45.990;18.688;2023-12-29T10:48:08;101160.22;;;27.86;30.35
75298;BME280;63896;45.990;18.688;2023-12-29T10:51:11;101163.28;;;26.58;31.32
75298;BME280;63896;45.990;18.688;2023-12-29T10:54:19;101152.47;;;26.80;31.43
75298;BME280;63896;45.990;18.688;2023-12-29T10:57:26;101138.06;;;27.57;30.29
75298;BME280;63896;45.990;18.688;2023-12-29T11:00:29;101131.84;;;27.29;30.82
75298;BME280;63896;45.990;18.688;2023-12-29T11:03:32;101129.91;;;26.80;31.11
75298;BME280;63896;45.990;18.688;2023-12-29T11:06:43;101124.06;;;27.36;30.90
75298;BME280;63896;45.990;18.688;2023-12-29T11:09:49;101123.53;;;27.48;30.55
75298;BME280;63896;45.990;18.688;2023-12-29T11:12:52;101117.31;;;26.97;30.77
75298;BME280;63896;45.990;18.688;2023-12-29T11:15:56;101118.75;;;25.94;31.92
75298;BME280;63896;45.990;18.688;2023-12-29T11:19:00;101114.50;;;26.48;31.36
75298;BME280;63896;45.990;18.688;2023-12-29T11:22:04;101114.31;;;25.66;32.20
75298;BME280;63896;45.990;18.688;2023-12-29T11:25:08;101115.69;;;26.69;31.12
75298;BME280;63896;45.990;18.688;2023-12-29T11:28:11;101104.16;;;27.13;30.45
75298;BME280;63896;45.990;18.688;2023-12-29T11:31:17;101101.81;;;27.56;30.29
75298;BME280;63896;45.990;18.688;2023-12-29T11:34:28;101097.56;;;25.91;31.35
75298;BME280;63896;45.990;18.688;2023-12-29T11:37:47;101095.84;;;25.95;30.81
75298;BME280;63896;45.990;18.688;2023-12-29T11:44:25;101089.53;;;26.00;30.56
75298;BME280;63896;45.990;18.688;2023-12-29T11:47:37;101085.28;;;23.87;33.62
75298;BME280;63896;45.990;18.688;2023-12-29T11:50:40;101082.25;;;24.70;32.89
75298;BME280;63896;45.990;18.688;2023-12-29T11:53:43;101076.16;;;23.49;34.28
75298;BME280;63896;45.990;18.688;2023-12-29T11:56:46;101072.28;;;24.17;33.22
75298;BME280;63896;45.990;18.688;2023-12-29T11:59:49;101067.50;;;23.47;34.27
75298;BME280;63896;45.990;18.688;2023-12-29T12:02:53;101061.34;;;22.92;35.41
75298;BME280;63896;45.990;18.688;2023-12-29T12:05:56;101061.69;;;23.24;35.03
75298;BME280;63896;45.990;18.688;2023-12-29T12:09:17;101053.38;;;22.57;36.00
75298;BME280;63896;45.990;18.688;2023-12-29T12:12:50;101063.00;;;21.83;37.78
75298;BME280;63896;45.990;18.688;2023-12-29T12:15:54;101054.91;;;21.99;38.20
75298;BME280;63896;45.990;18.688;2023-12-29T12:18:57;101058.59;;;22.38;36.72
75298;BME280;63896;45.990;18.688;2023-12-29T12:22:01;101054.63;;;21.80;38.09
75298;BME280;63896;45.990;18.688;2023-12-29T12:25:05;101055.16;;;21.11;39.97
75298;BME280;63896;45.990;18.688;2023-12-29T12:28:10;101057.59;;;21.83;38.14
75298;BME280;63896;45.990;18.688;2023-12-29T12:31:13;101057.38;;;21.55;38.41
75298;BME280;63896;45.990;18.688;2023-12-29T12:34:15;101048.03;;;20.75;40.46
75298;BME280;63896;45.990;18.688;2023-12-29T12:37:20;101050.09;;;20.53;41.60
75298;BME280;63896;45.990;18.688;2023-12-29T12:40:26;101037.59;;;19.84;42.31
75298;BME280;63896;45.990;18.688;2023-12-29T12:43:33;101042.31;;;20.09;42.36
75298;BME280;63896;45.990;18.688;2023-12-29T12:46:58;101031.69;;;19.24;44.33
75298;BME280;63896;45.990;18.688;2023-12-29T12:50:02;101038.97;;;19.50;44.34
75298;BME280;63896;45.990;18.688;2023-12-29T12:53:07;101038.50;;;19.63;43.20
75298;BME280;63896;45.990;18.688;2023-12-29T12:56:12;101037.31;;;18.69;45.79
75298;BME280;63896;45.990;18.688;2023-12-29T12:59:15;101026.34;;;18.10;47.07
75298;BME280;63896;45.990;18.688;2023-12-29T13:02:20;101033.94;;;17.30;48.88
75298;BME280;63896;45.990;18.688;2023-12-29T13:05:24;101041.44;;;16.71;50.94
75298;BME280;63896;45.990;18.688;2023-12-29T13:08:27;101038.78;;;16.59;51.20
75298;BME280;63896;45.990;18.688;2023-12-29T13:11:39;101036.31;;;16.98;50.34
75298;BME280;63896;45.990;18.688;2023-12-29T13:14:46;101032.28;;;17.57;49.08
75298;BME280;63896;45.990;18.688;2023-12-29T13:17:55;101037.28;;;17.87;48.22
75298;BME280;63896;45.990;18.688;2023-12-29T13:20:58;101040.50;;;17.39;48.28
75298;BME280;63896;45.990;18.688;2023-12-29T13:24:04;101032.00;;;16.97;49.75
75298;BME280;63896;45.990;18.688;2023-12-29T13:27:08;101027.88;;;16.78;50.81
75298;BME280;63896;45.990;18.688;2023-12-29T13:30:11;101030.78;;;16.36;52.28
75298;BME280;63896;45.990;18.688;2023-12-29T13:33:34;101025.59;;;15.95;53.93
75298;BME280;63896;45.990;18.688;2023-12-29T13:36:46;101030.53;;;15.03;54.93
75298;BME280;63896;45.990;18.688;2023-12-29T13:40:17;101039.50;;;14.79;56.38
75298;BME280;63896;45.990;18.688;2023-12-29T13:43:19;101035.91;;;14.55;58.19
75298;BME280;63896;45.990;18.688;2023-12-29T13:46:23;101026.41;;;14.41;59.40
75298;BME280;63896;45.990;18.688;2023-12-29T13:49:26;101023.16;;;14.21;61.01
75298;BME280;63896;45.990;18.688;2023-12-29T13:52:29;101026.25;;;14.18;61.17
75298;BME280;63896;45.990;18.688;2023-12-29T13:55:32;101028.47;;;14.03;62.39
75298;BME280;63896;45.990;18.688;2023-12-29T13:58:36;101027.72;;;13.96;63.83
75298;BME280;63896;45.990;18.688;2023-12-29T14:01:38;101033.03;;;13.77;65.29
75298;BME280;63896;45.990;18.688;2023-12-29T14:04:42;101035.84;;;13.82;64.93
75298;BME280;63896;45.990;18.688;2023-12-29T14:07:47;101029.25;;;13.60;66.87
75298;BME280;63896;45.990;18.688;2023-12-29T14:10:54;101030.78;;;13.50;67.41
75298;BME280;63896;45.990;18.688;2023-12-29T14:13:57;101032.09;;;13.41;68.19
75298;BME280;63896;45.990;18.688;2023-12-29T14:17:00;101029.91;;;13.31;69.29
75298;BME280;63896;45.990;18.688;2023-12-29T14:20:04;101031.63;;;13.19;70.29
75298;BME280;63896;45.990;18.688;2023-12-29T14:23:09;101034.78;;;13.03;71.57
75298;BME280;63896;45.990;18.688;2023-12-29T14:26:12;101028.09;;;12.94;72.44
75298;BME280;63896;45.990;18.688;2023-12-29T14:29:15;101025.09;;;12.77;73.78
75298;BME280;63896;45.990;18.688;2023-12-29T14:32:18;101029.25;;;12.66;74.60
75298;BME280;63896;45.990;18.688;2023-12-29T14:35:21;101033.59;;;12.54;74.66
75298;BME280;63896;45.990;18.688;2023-12-29T14:38:24;101032.38;;;12.43;75.74
75298;BME280;63896;45.990;18.688;2023-12-29T14:41:27;101030.19;;;12.34;76.95
75298;BME280;63896;45.990;18.688;2023-12-29T14:44:30;101026.53;;;12.22;78.63
75298;BME280;63896;45.990;18.688;2023-12-29T14:47:33;101022.03;;;12.22;79.27
75298;BME280;63896;45.990;18.688;2023-12-29T14:50:37;101018.81;;;12.01;80.28
75298;BME280;63896;45.990;18.688;2023-12-29T14:53:42;101019.25;;;11.78;82.60
75298;BME280;63896;45.990;18.688;2023-12-29T14:56:45;101020.06;;;11.65;82.99
75298;BME280;63896;45.990;18.688;2023-12-29T14:59:48;101015.16;;;11.49;83.77
75298;BME280;63896;45.990;18.688;2023-12-29T15:02:51;101021.09;;;11.31;85.32
75298;BME280;63896;45.990;18.688;2023-12-29T15:05:54;101026.97;;;11.20;85.90
75298;BME280;63896;45.990;18.688;2023-12-29T15:09:00;101016.94;;;11.09;86.48
75298;BME280;63896;45.990;18.688;2023-12-29T15:12:03;101028.16;;;10.98;87.09
75298;BME280;63896;45.990;18.688;2023-12-29T15:15:07;101024.06;;;10.89;87.64
75298;BME280;63896;45.990;18.688;2023-12-29T15:18:10;101015.25;;;10.75;89.96
75298;BME280;63896;45.990;18.688;2023-12-29T15:21:13;101015.00;;;10.57;91.08
75298;BME280;63896;45.990;18.688;2023-12-29T15:24:16;101013.34;;;10.56;91.16
75298;BME280;63896;45.990;18.688;2023-12-29T15:27:19;101024.50;;;10.38;92.27
75298;BME280;63896;45.990;18.688;2023-12-29T15:30:22;101023.06;;;10.36;92.77
75298;BME280;63896;45.990;18.688;2023-12-29T15:33:25;101016.06;;;10.28;93.65
75298;BME280;63896;45.990;18.688;2023-12-29T15:36:28;101017.41;;;10.11;95.71
75298;BME280;63896;45.990;18.688;2023-12-29T15:39:31;101017.28;;;9.91;98.10
75298;BME280;63896;45.990;18.688;2023-12-29T15:42:34;101020.91;;;9.84;100.00
75298;BME280;63896;45.990;18.688;2023-12-29T15:45:36;101020.66;;;9.79;100.00
75298;BME280;63896;45.990;18.688;2023-12-29T15:48:39;101025.91;;;9.72;100.00
75298;BME280;63896;45.990;18.688;2023-12-29T15:51:42;101019.63;;;9.52;100.00
75298;BME280;63896;45.990;18.688;2023-12-29T15:54:45;101021.16;;;9.40;100.00